Time;durP1;ratioP1;P1;durP2;ratioP2;P2;SDS_P1;SDS_P2;PMS_P1;PMS_P2;Temp;Humidity;BMP_temperature;BMP_pressure;BME280_temperature;BME280_humidity;BME280_pressure;Samples;Min_cycle;Max_cycle;Signal;HPM_P1;HPM_P2
2021/05/20 00:00:14;;;;;;;0.90;0.90;;;23.60;39.70;;;;;;5071414;28;20236;-52
2021/05/20 00:02:40;;;;;;;1.20;0.90;;;23.60;39.70;;;;;;5070061;28;20231;-48
2021/05/20 00:05:06;;;;;;;1.17;1.00;;;23.60;39.70;;;;;;5074353;28;20212;-55
2021/05/20 00:07:32;;;;;;;0.80;0.80;;;23.60;39.70;;;;;;5086171;28;20352;-49
2021/05/20 00:09:58;;;;;;;1.00;0.80;;;23.60;39.70;;;;;;5071287;28;20395;-43
2021/05/20 00:12:24;;;;;;;1.35;0.90;;;23.60;39.70;;;;;;5071051;28;20303;-48
2021/05/20 00:14:50;;;;;;;1.17;0.85;;;23.60;39.70;;;;;;5069782;28;20684;-46
2021/05/20 00:17:16;;;;;;;1.20;1.00;;;23.60;40.20;;;;;;5079044;28;20201;-46
2021/05/20 00:19:42;;;;;;;0.80;0.80;;;23.60;40.00;;;;;;5084229;28;20221;-48
2021/05/20 00:22:08;;;;;;;2.13;0.80;;;23.60;40.10;;;;;;5071221;28;20272;-50
2021/05/20 00:24:34;;;;;;;0.98;0.75;;;23.60;40.00;;;;;;5069268;28;20223;-53
2021/05/20 00:27:00;;;;;;;1.10;0.90;;;23.60;40.00;;;;;;5070530;28;20197;-45
2021/05/20 00:29:26;;;;;;;1.13;1.02;;;23.60;40.00;;;;;;5082971;28;20201;-41
2021/05/20 00:31:52;;;;;;;2.35;0.90;;;23.60;40.00;;;;;;5070468;28;20259;-53
2021/05/20 00:34:18;;;;;;;0.98;0.88;;;23.60;40.00;;;;;;5069563;28;20256;-45
2021/05/20 00:36:44;;;;;;;1.45;0.90;;;23.60;40.10;;;;;;5073136;28;20204;-46
2021/05/20 00:39:10;;;;;;;2.22;1.10;;;23.60;40.10;;;;;;5091156;28;20296;-44
2021/05/20 00:41:36;;;;;;;0.80;0.80;;;23.60;40.10;;;;;;5086206;28;20278;-48
2021/05/20 00:44:02;;;;;;;1.00;0.90;;;23.60;40.20;;;;;;5090373;28;20208;-51
2021/05/20 00:46:28;;;;;;;1.88;1.10;;;23.60;40.20;;;;;;5070068;28;20212;-49
2021/05/20 00:48:54;;;;;;;1.33;0.80;;;23.60;40.30;;;;;;5069223;28;20217;-47
2021/05/20 00:51:20;;;;;;;1.10;0.90;;;23.60;40.30;;;;;;5068710;28;20331;-51
2021/05/20 00:53:46;;;;;;;1.00;0.98;;;23.60;40.30;;;;;;5067394;28;20209;-47
2021/05/20 00:56:12;;;;;;;1.33;1.13;;;23.60;40.30;;;;;;5069491;28;20726;-53
2021/05/20 00:58:38;;;;;;;1.05;0.90;;;23.60;40.40;;;;;;5069783;28;20197;-43
2021/05/20 01:01:04;;;;;;;1.58;1.33;;;23.60;40.40;;;;;;5070104;28;20274;-44
2021/05/20 01:03:31;;;;;;;0.98;0.90;;;23.60;40.40;;;;;;5067988;28;20205;-47
2021/05/20 01:05:57;;;;;;;1.00;0.90;;;23.60;40.50;;;;;;5069369;28;20211;-53
2021/05/20 01:08:25;;;;;;;1.83;1.05;;;23.60;40.50;;;;;;5069554;28;20201;-53
2021/05/20 01:10:51;;;;;;;1.60;0.90;;;23.60;40.60;;;;;;5070505;28;20593;-50
2021/05/20 01:13:17;;;;;;;2.72;1.00;;;23.60;40.40;;;;;;5067556;28;20319;-45
2021/05/20 01:15:43;;;;;;;0.93;0.82;;;23.60;40.50;;;;;;5074012;28;20895;-47
2021/05/20 01:18:09;;;;;;;1.48;1.00;;;23.60;40.50;;;;;;5070091;28;20197;-53
2021/05/20 01:20:35;;;;;;;0.70;0.70;;;23.60;40.50;;;;;;5068746;28;20232;-44
2021/05/20 01:23:01;;;;;;;0.90;0.90;;;23.60;40.50;;;;;;5069842;28;20657;-52
2021/05/20 01:25:27;;;;;;;1.75;1.00;;;23.60;40.50;;;;;;5069160;28;20256;-53
2021/05/20 01:27:53;;;;;;;1.70;0.90;;;23.60;40.50;;;;;;5064418;28;20625;-49
2021/05/20 01:30:19;;;;;;;0.93;0.82;;;23.60;40.40;;;;;;5070801;28;20226;-53
2021/05/20 01:32:45;;;;;;;0.82;0.82;;;23.60;40.50;;;;;;5068831;28;20270;-51
2021/05/20 01:35:11;;;;;;;0.90;0.90;;;23.60;40.40;;;;;;5068937;28;20614;-46
2021/05/20 01:37:37;;;;;;;1.15;0.80;;;23.60;40.30;;;;;;5069235;28;20204;-46
2021/05/20 01:40:03;;;;;;;1.35;1.00;;;23.60;40.30;;;;;;5072805;28;20225;-47
2021/05/20 01:42:29;;;;;;;0.90;0.90;;;23.60;40.30;;;;;;5069871;28;20205;-55
2021/05/20 01:44:55;;;;;;;1.75;0.98;;;23.60;40.30;;;;;;5067385;28;20205;-52
2021/05/20 01:47:21;;;;;;;0.80;0.80;;;23.60;40.30;;;;;;5073989;28;20614;-47
2021/05/20 01:49:49;;;;;;;0.80;0.80;;;23.60;40.20;;;;;;5068688;28;20279;-52
2021/05/20 01:52:15;;;;;;;1.40;0.90;;;23.60;40.30;;;;;;5065608;28;20212;-44
2021/05/20 01:54:41;;;;;;;0.93;0.93;;;23.60;40.30;;;;;;5068587;28;20277;-54
2021/05/20 01:57:07;;;;;;;0.80;0.80;;;23.60;40.30;;;;;;5069518;28;20574;-48
2021/05/20 01:59:33;;;;;;;0.90;0.90;;;23.60;40.30;;;;;;5068753;28;20225;-50
2021/05/20 02:01:59;;;;;;;1.00;0.95;;;23.60;40.30;;;;;;5082853;28;20204;-50
2021/05/20 02:04:25;;;;;;;0.88;0.80;;;23.60;40.30;;;;;;5091402;28;20208;-48
2021/05/20 02:06:51;;;;;;;1.05;0.80;;;23.60;40.30;;;;;;5070716;28;20560;-50
2021/05/20 02:09:16;;;;;;;1.00;0.75;;;23.60;40.30;;;;;;5072201;28;20274;-47
2021/05/20 02:11:42;;;;;;;0.93;0.93;;;23.60;40.30;;;;;;5085550;28;20220;-53
2021/05/20 02:14:08;;;;;;;0.80;0.80;;;23.60;40.30;;;;;;5071752;28;20220;-43
2021/05/20 02:16:34;;;;;;;1.17;0.82;;;23.60;40.40;;;;;;5076184;28;20201;-49
2021/05/20 02:19:00;;;;;;;0.82;0.80;;;23.60;40.40;;;;;;5080805;28;20236;-49
2021/05/20 02:21:26;;;;;;;0.90;0.90;;;23.60;40.30;;;;;;5093788;28;20227;-51
2021/05/20 02:23:52;;;;;;;0.93;0.80;;;23.60;40.30;;;;;;5073483;28;20201;-52
2021/05/20 02:26:18;;;;;;;0.77;0.77;;;23.60;40.40;;;;;;5072899;28;20609;-47
2021/05/20 02:28:44;;;;;;;0.75;0.70;;;23.60;40.40;;;;;;5077249;28;20274;-48
2021/05/20 02:31:10;;;;;;;0.90;0.90;;;23.60;40.40;;;;;;5072887;28;20291;-52
2021/05/20 02:33:36;;;;;;;1.25;1.17;;;23.60;40.40;;;;;;5074667;28;20208;-49
2021/05/20 02:36:02;;;;;;;1.02;0.80;;;23.60;40.40;;;;;;5085204;28;20207;-48
2021/05/20 02:38:28;;;;;;;0.98;0.88;;;23.60;40.50;;;;;;5082101;28;20204;-45
2021/05/20 02:40:54;;;;;;;0.80;0.80;;;23.60;40.50;;;;;;5071581;28;20225;-46
2021/05/20 02:43:20;;;;;;;1.20;1.10;;;23.60;40.50;;;;;;5071775;28;20633;-43
2021/05/20 02:45:46;;;;;;;0.82;0.82;;;23.60;40.50;;;;;;5072988;28;20208;-43
2021/05/20 02:48:12;;;;;;;0.82;0.80;;;23.60;40.50;;;;;;5071840;28;20456;-45
2021/05/20 02:50:38;;;;;;;0.98;0.82;;;23.60;40.50;;;;;;5079418;28;20225;-53
2021/05/20 02:53:04;;;;;;;0.95;0.70;;;23.60;40.50;;;;;;5074097;28;20209;-46
2021/05/20 02:55:30;;;;;;;0.95;0.90;;;23.60;40.50;;;;;;5072665;28;20267;-48
2021/05/20 02:57:59;;;;;;;0.80;0.70;;;23.60;40.60;;;;;;5070573;28;20201;-45
2021/05/20 03:00:28;;;;;;;0.93;0.80;;;23.60;40.50;;;;;;5068120;28;20245;-54
2021/05/20 03:02:54;;;;;;;0.80;0.80;;;23.60;40.60;;;;;;5075027;28;20201;-43
2021/05/20 03:05:20;;;;;;;0.90;0.80;;;23.60;40.60;;;;;;5076456;28;20212;-45
2021/05/20 03:07:46;;;;;;;1.00;0.80;;;23.60;40.60;;;;;;5068439;28;20576;-45
2021/05/20 03:10:12;;;;;;;0.85;0.85;;;23.60;40.60;;;;;;5073925;28;20221;-42
2021/05/20 03:12:38;;;;;;;0.80;0.80;;;23.60;40.50;;;;;;5071015;28;20198;-42
2021/05/20 03:15:04;;;;;;;0.70;0.70;;;23.60;40.60;;;;;;5071586;28;20533;-45
2021/05/20 03:17:30;;;;;;;0.73;0.73;;;23.60;40.50;;;;;;5071636;28;20201;-52
2021/05/20 03:19:56;;;;;;;1.10;0.95;;;23.60;40.50;;;;;;5079800;28;20232;-44
2021/05/20 03:22:22;;;;;;;0.80;0.80;;;23.60;40.60;;;;;;5070621;28;20205;-44
2021/05/20 03:24:50;;;;;;;0.80;0.80;;;23.60;40.60;;;;;;5071822;28;20208;-42
2021/05/20 03:27:16;;;;;;;1.05;0.95;;;23.60;40.60;;;;;;5072257;28;20204;-44
2021/05/20 03:29:42;;;;;;;0.90;0.90;;;23.60;40.50;;;;;;5079934;28;20220;-43
2021/05/20 03:32:08;;;;;;;1.45;0.77;;;23.60;40.50;;;;;;5071550;28;20208;-44
2021/05/20 03:34:34;;;;;;;0.82;0.82;;;23.60;40.60;;;;;;5070526;28;20201;-43
2021/05/20 03:37:00;;;;;;;0.73;0.73;;;23.60;40.60;;;;;;5072151;28;20611;-43
2021/05/20 03:39:26;;;;;;;0.77;0.77;;;23.60;40.50;;;;;;5078867;28;20270;-50
2021/05/20 03:41:52;;;;;;;2.33;0.80;;;23.60;40.60;;;;;;5071193;28;20286;-43
2021/05/20 03:44:17;;;;;;;1.13;0.80;;;23.60;40.60;;;;;;5079468;28;20554;-43
2021/05/20 03:46:43;;;;;;;1.60;0.93;;;23.60;40.60;;;;;;5091769;28;20201;-43
2021/05/20 03:49:09;;;;;;;0.70;0.70;;;23.60;40.60;;;;;;5085365;28;20224;-45
2021/05/20 03:51:35;;;;;;;6.43;1.58;;;23.60;40.60;;;;;;5073337;28;20201;-43
2021/05/20 03:54:01;;;;;;;0.93;0.80;;;23.60;40.60;;;;;;5065895;28;20208;-42
2021/05/20 03:56:27;;;;;;;0.90;0.90;;;23.60;40.70;;;;;;5073960;28;20645;-43
2021/05/20 03:58:53;;;;;;;0.85;0.80;;;23.60;40.70;;;;;;5069591;28;20228;-43
2021/05/20 04:01:19;;;;;;;0.80;0.80;;;23.60;40.70;;;;;;5070297;28;20367;-44
2021/05/20 04:03:45;;;;;;;0.80;0.80;;;23.60;40.70;;;;;;5071171;28;20205;-42
2021/05/20 04:06:11;;;;;;;0.90;0.80;;;23.60;40.70;;;;;;5070427;28;20244;-43
2021/05/20 04:08:37;;;;;;;0.80;0.80;;;23.60;40.60;;;;;;5073612;28;20213;-42
2021/05/20 04:11:03;;;;;;;0.90;0.90;;;23.60;40.70;;;;;;5076320;28;20204;-45
2021/05/20 04:13:29;;;;;;;0.98;0.80;;;23.60;40.70;;;;;;5066670;28;20606;-43
2021/05/20 04:15:55;;;;;;;1.08;0.80;;;23.60;40.80;;;;;;5070419;28;20197;-45
2021/05/20 04:18:21;;;;;;;1.23;0.80;;;23.60;40.80;;;;;;5085138;28;20558;-42
2021/05/20 04:20:47;;;;;;;1.50;1.00;;;23.60;40.70;;;;;;5071678;28;20229;-42
2021/05/20 04:23:13;;;;;;;0.70;0.70;;;23.60;40.80;;;;;;5085095;28;20283;-42
2021/05/20 04:25:39;;;;;;;1.92;0.90;;;23.60;40.70;;;;;;5086530;28;20201;-44
2021/05/20 04:28:05;;;;;;;0.80;0.80;;;23.60;40.80;;;;;;5070536;28;20255;-42
2021/05/20 04:30:31;;;;;;;0.90;0.85;;;23.60;40.80;;;;;;5076090;28;20196;-42
2021/05/20 04:32:57;;;;;;;0.90;0.90;;;23.60;40.80;;;;;;5066140;28;20197;-46
2021/05/20 04:35:23;;;;;;;1.17;0.80;;;23.60;40.80;;;;;;5073388;28;20251;-44
2021/05/20 04:37:49;;;;;;;0.80;0.80;;;23.60;40.90;;;;;;5069959;28;20791;-42
2021/05/20 04:40:15;;;;;;;0.85;0.85;;;23.60;41.00;;;;;;5072839;28;20224;-42
2021/05/20 04:42:41;;;;;;;1.08;0.95;;;23.60;40.90;;;;;;5068334;28;20217;-45
2021/05/20 04:45:07;;;;;;;1.33;0.82;;;23.60;40.90;;;;;;5079488;28;20553;-44
2021/05/20 04:47:33;;;;;;;1.23;1.10;;;23.60;41.00;;;;;;5072075;28;20240;-44
2021/05/20 04:49:59;;;;;;;2.58;0.90;;;23.60;41.00;;;;;;5076234;28;20232;-42
2021/05/20 04:52:25;;;;;;;0.70;0.70;;;23.60;41.10;;;;;;5068677;28;20288;-43
2021/05/20 04:54:51;;;;;;;1.60;0.90;;;23.60;41.10;;;;;;5074547;28;20204;-43
2021/05/20 04:57:17;;;;;;;1.10;0.88;;;23.60;41.00;;;;;;5068891;28;20201;-42
2021/05/20 04:59:43;;;;;;;0.95;0.95;;;23.60;41.60;;;;;;5069417;28;20723;-46
2021/05/20 05:02:09;;;;;;;0.90;0.90;;;23.60;40.80;;;;;;5069349;28;20212;-50
2021/05/20 05:04:35;;;;;;;0.80;0.80;;;23.60;40.70;;;;;;5068207;28;20246;-49
2021/05/20 05:07:01;;;;;;;0.90;0.90;;;23.60;40.70;;;;;;5070244;28;20591;-48
2021/05/20 05:09:27;;;;;;;0.93;0.88;;;23.60;40.60;;;;;;5069197;28;20217;-44
2021/05/20 05:11:53;;;;;;;1.17;0.88;;;23.60;40.70;;;;;;5077730;28;20201;-44
2021/05/20 05:14:19;;;;;;;0.75;0.75;;;23.60;40.60;;;;;;5071531;28;20601;-47
2021/05/20 05:16:45;;;;;;;0.70;0.70;;;23.60;40.70;;;;;;5083454;28;20697;-43
2021/05/20 05:19:11;;;;;;;0.93;0.90;;;23.60;40.60;;;;;;5069169;28;20221;-45
2021/05/20 05:21:37;;;;;;;0.82;0.82;;;23.60;40.60;;;;;;5066499;28;20274;-43
2021/05/20 05:24:03;;;;;;;1.30;1.00;;;23.60;40.60;;;;;;5069472;28;20205;-45
2021/05/20 05:26:29;;;;;;;1.15;0.90;;;23.60;40.60;;;;;;5068534;28;20212;-50
2021/05/20 05:28:55;;;;;;;1.52;0.90;;;23.60;40.70;;;;;;5070452;28;20228;-44
2021/05/20 05:31:23;;;;;;;1.08;0.98;;;23.60;40.70;;;;;;5069111;28;20201;-52
2021/05/20 05:33:49;;;;;;;1.52;0.82;;;23.60;40.70;;;;;;5080816;28;20363;-52
2021/05/20 05:36:15;;;;;;;4.28;1.25;;;23.60;40.70;;;;;;5070901;28;20348;-44
2021/05/20 05:38:41;;;;;;;4.10;1.02;;;23.60;42.10;;;;;;5068796;28;20323;-50
2021/05/20 05:41:07;;;;;;;5.35;1.05;;;23.60;42.00;;;;;;5080814;28;20562;-54
2021/05/20 05:43:33;;;;;;;2.97;1.33;;;23.60;42.60;;;;;;5073573;28;20245;-43
2021/05/20 05:45:59;;;;;;;8.73;2.03;;;23.70;42.60;;;;;;5080180;28;20196;-49
2021/05/20 05:48:25;;;;;;;3.38;1.02;;;23.60;42.60;;;;;;5081286;28;20220;-45
2021/05/20 05:50:53;;;;;;;7.55;1.95;;;23.60;42.60;;;;;;5072549;28;20201;-50
2021/05/20 05:53:19;;;;;;;5.28;1.80;;;23.60;43.80;;;;;;5068095;28;20201;-51
2021/05/20 05:55:45;;;;;;;5.97;1.50;;;23.60;43.60;;;;;;5070509;28;20723;-44
2021/05/20 05:58:11;;;;;;;7.03;1.45;;;23.60;43.10;;;;;;5072421;28;20239;-44
2021/05/20 06:00:38;;;;;;;8.57;1.65;;;23.60;44.50;;;;;;5071529;28;20221;-47
2021/05/20 06:03:04;;;;;;;4.18;1.98;;;23.60;44.80;;;;;;5072187;28;20386;-44
2021/05/20 06:05:30;;;;;;;5.00;1.70;;;23.50;45.60;;;;;;5072218;28;20217;-47
2021/05/20 06:07:56;;;;;;;6.50;1.80;;;23.50;45.70;;;;;;5072313;28;20374;-51
2021/05/20 06:10:23;;;;;;;5.95;1.92;;;23.50;45.90;;;;;;5063489;28;20242;-50
2021/05/20 06:12:49;;;;;;;1.45;1.30;;;22.30;39.10;;;;;;5069730;28;20209;-44
2021/05/20 06:15:15;;;;;;;2.07;1.20;;;18.60;38.60;;;;;;5069526;28;20601;-52
2021/05/20 06:17:41;;;;;;;2.93;1.20;;;18.40;44.10;;;;;;5072031;28;20266;-49
2021/05/20 06:20:07;;;;;;;2.43;1.20;;;20.00;41.80;;;;;;5070482;28;20277;-46
2021/05/20 06:22:33;;;;;;;1.60;0.97;;;21.00;41.60;;;;;;5069978;28;20606;-46
2021/05/20 06:24:59;;;;;;;1.63;1.07;;;21.60;40.80;;;;;;5071849;28;20280;-48
2021/05/20 06:27:26;;;;;;;1.73;0.90;;;22.00;41.00;;;;;;5070126;28;20225;-47
2021/05/20 06:29:52;;;;;;;3.03;1.20;;;22.30;41.30;;;;;;5065416;28;20200;-50
2021/05/20 06:32:18;;;;;;;1.13;1.00;;;22.50;41.60;;;;;;5069055;28;20219;-43
2021/05/20 06:34:44;;;;;;;2.40;1.23;;;22.70;41.80;;;;;;5070331;28;20211;-47
2021/05/20 06:37:10;;;;;;;2.27;1.17;;;22.90;41.90;;;;;;5071583;28;20265;-44
2021/05/20 06:39:36;;;;;;;3.03;0.93;;;23.00;42.10;;;;;;5071532;28;20716;-44
2021/05/20 06:42:02;;;;;;;3.83;1.30;;;23.10;42.10;;;;;;5081850;28;20258;-44
2021/05/20 06:44:28;;;;;;;2.10;1.00;;;23.10;41.80;;;;;;5072016;28;20212;-53
2021/05/20 06:46:54;;;;;;;3.23;1.00;;;23.10;41.40;;;;;;5068331;28;20633;-46
2021/05/20 06:49:20;;;;;;;1.27;0.87;;;23.00;42.00;;;;;;5069959;28;20238;-41
2021/05/20 06:51:46;;;;;;;2.50;1.13;;;23.20;42.20;;;;;;5068842;28;20205;-44
2021/05/20 06:54:12;;;;;;;1.20;1.10;;;23.20;42.10;;;;;;5069342;28;20644;-42
2021/05/20 06:56:40;;;;;;;1.27;1.00;;;23.20;42.20;;;;;;5067007;28;20256;-47
2021/05/20 07:01:51;;;;;;;1.30;0.90;;;23.30;42.30;;;;;;5071887;28;20459;-50
2021/05/20 07:04:17;;;;;;;1.92;0.88;;;23.30;42.30;;;;;;5076787;28;20618;-46
2021/05/20 07:06:42;;;;;;;0.80;0.80;;;23.40;42.10;;;;;;5070109;28;20204;-49
2021/05/20 07:09:08;;;;;;;2.55;0.85;;;23.40;42.20;;;;;;5079617;28;20302;-44
2021/05/20 07:11:34;;;;;;;1.15;0.90;;;23.40;42.60;;;;;;5074890;28;20665;-45
2021/05/20 07:14:00;;;;;;;0.95;0.90;;;23.40;42.40;;;;;;5075747;28;20201;-46
2021/05/20 07:16:26;;;;;;;1.17;0.90;;;23.40;42.40;;;;;;5071292;28;20193;-48
2021/05/20 07:18:52;;;;;;;1.52;0.85;;;23.40;42.40;;;;;;5061310;28;20256;-49
2021/05/20 07:21:19;;;;;;;1.33;1.05;;;23.40;42.40;;;;;;5070581;28;20236;-44
2021/05/20 07:23:45;;;;;;;0.88;0.82;;;23.50;42.50;;;;;;5069571;28;20207;-51
2021/05/20 07:26:11;;;;;;;1.73;0.90;;;23.50;42.50;;;;;;5070510;28;20653;-45
2021/05/20 07:28:37;;;;;;;1.65;0.85;;;23.50;42.50;;;;;;5070300;28;20225;-49
2021/05/20 07:31:03;;;;;;;2.13;0.90;;;23.50;42.50;;;;;;5069099;28;20590;-45
2021/05/20 07:33:30;;;;;;;0.80;0.80;;;23.40;42.40;;;;;;5070642;28;20291;-43
2021/05/20 07:35:56;;;;;;;1.48;0.80;;;23.50;42.50;;;;;;5069516;28;20209;-50
2021/05/20 07:38:22;;;;;;;1.35;1.10;;;23.50;42.50;;;;;;5065144;28;20238;-42
2021/05/20 07:40:48;;;;;;;0.80;0.80;;;23.40;42.40;;;;;;5068675;28;20229;-47
2021/05/20 07:43:16;;;;;;;1.45;1.00;;;23.40;40.40;;;;;;5065520;28;20208;-49
2021/05/20 07:45:42;;;;;;;0.98;0.85;;;23.40;41.00;;;;;;5068984;28;20226;-47
2021/05/20 07:48:08;;;;;;;1.20;0.70;;;23.50;41.30;;;;;;5071865;28;20483;-46
2021/05/20 07:50:34;;;;;;;1.70;0.80;;;23.50;41.60;;;;;;5070084;28;20205;-46
2021/05/20 07:53:00;;;;;;;0.93;0.93;;;23.50;40.90;;;;;;5070308;28;20205;-45
2021/05/20 07:55:26;;;;;;;2.10;1.00;;;23.50;40.60;;;;;;5068926;28;20230;-42
2021/05/20 07:57:54;;;;;;;0.80;0.80;;;23.60;41.30;;;;;;5073549;28;20217;-44
2021/05/20 08:00:20;;;;;;;1.02;0.90;;;23.60;41.20;;;;;;5084796;28;20227;-49
2021/05/20 08:02:50;;;;;;;1.02;1.02;;;23.50;41.40;;;;;;5069377;28;20201;-46
2021/05/20 08:05:23;;;;;;;0.70;0.70;;;23.50;41.70;;;;;;5070961;28;20662;-45
2021/05/20 08:07:54;;;;;;;1.58;0.88;;;23.50;41.20;;;;;;5059778;28;20252;-50
2021/05/20 08:10:44;;;;;;;0.85;0.80;;;23.50;41.10;;;;;;5071335;28;20213;-45
2021/05/20 08:13:10;;;;;;;1.35;0.80;;;23.50;41.30;;;;;;5068875;28;20334;-45
2021/05/20 08:15:36;;;;;;;0.65;0.65;;;23.40;41.40;;;;;;5071104;28;20306;-43
2021/05/20 08:18:02;;;;;;;1.38;0.95;;;23.40;41.50;;;;;;5069709;28;20315;-47
2021/05/20 08:20:28;;;;;;;0.80;0.80;;;23.50;41.50;;;;;;5066291;28;20262;-44
2021/05/20 08:22:54;;;;;;;1.38;0.80;;;23.50;42.50;;;;;;5073155;28;20205;-43
2021/05/20 08:25:20;;;;;;;0.80;0.80;;;23.70;42.20;;;;;;5074253;28;20209;-48
2021/05/20 08:27:46;;;;;;;1.48;0.90;;;23.70;42.70;;;;;;5072232;28;20793;-48
2021/05/20 08:30:12;;;;;;;0.85;0.80;;;23.80;42.90;;;;;;5070201;28;20219;-44
2021/05/20 08:32:38;;;;;;;1.73;0.80;;;23.80;42.80;;;;;;5079055;28;20763;-47
2021/05/20 08:35:04;;;;;;;0.68;0.68;;;23.70;42.60;;;;;;5069836;28;20309;-45
2021/05/20 08:37:30;;;;;;;1.38;1.02;;;23.70;42.40;;;;;;5068913;28;20221;-45
2021/05/20 08:39:56;;;;;;;1.25;0.80;;;23.60;42.10;;;;;;5061842;28;20260;-46
2021/05/20 08:42:22;;;;;;;0.80;0.80;;;23.60;42.20;;;;;;5068163;28;20240;-56
2021/05/20 08:44:48;;;;;;;0.95;0.85;;;23.60;42.40;;;;;;5070333;28;20569;-46
2021/05/20 08:47:14;;;;;;;1.92;0.77;;;23.60;42.60;;;;;;5067548;28;20229;-50
2021/05/20 08:49:44;;;;;;;0.70;0.70;;;23.60;42.60;;;;;;5056200;28;20205;-49
2021/05/20 08:52:12;;;;;;;1.05;0.80;;;23.50;43.50;;;;;;5069310;28;20201;-45
2021/05/20 08:54:38;;;;;;;0.80;0.80;;;23.60;43.30;;;;;;5069729;28;20221;-44
2021/05/20 08:57:04;;;;;;;0.80;0.80;;;23.50;43.80;;;;;;5066613;28;20228;-49
2021/05/20 08:59:30;;;;;;;3.70;0.90;;;23.60;44.10;;;;;;5066715;28;20204;-46
2021/05/20 09:01:58;;;;;;;1.80;0.90;;;23.60;43.90;;;;;;5061196;28;20901;-47
2021/05/20 09:04:24;;;;;;;0.80;0.80;;;23.60;43.60;;;;;;5069911;28;20197;-48
2021/05/20 09:06:52;;;;;;;1.00;0.90;;;23.60;44.50;;;;;;5068704;28;20229;-44
2021/05/20 09:09:20;;;;;;;2.03;0.80;;;23.60;44.30;;;;;;5069619;28;20672;-42
2021/05/20 09:11:47;;;;;;;1.63;0.85;;;23.60;44.00;;;;;;5068290;28;20204;-48
2021/05/20 09:14:13;;;;;;;0.85;0.85;;;23.70;44.40;;;;;;5066095;28;20517;-43
2021/05/20 09:16:38;;;;;;;3.15;0.90;;;23.70;44.30;;;;;;5069163;28;20205;-46
2021/05/20 09:19:04;;;;;;;0.73;0.73;;;23.70;44.20;;;;;;5069319;28;20196;-42
2021/05/20 09:21:30;;;;;;;0.80;0.80;;;23.70;43.80;;;;;;5067736;28;20355;-53
2021/05/20 09:23:56;;;;;;;0.70;0.70;;;23.70;44.10;;;;;;5067664;28;20204;-43
2021/05/20 09:26:22;;;;;;;0.70;0.70;;;23.70;44.10;;;;;;5070576;28;20208;-48
2021/05/20 09:28:49;;;;;;;1.02;0.80;;;23.70;44.30;;;;;;5067378;28;20648;-43
2021/05/20 09:31:15;;;;;;;1.48;0.70;;;23.70;44.40;;;;;;5070198;28;20200;-54
2021/05/20 09:33:41;;;;;;;1.35;0.70;;;23.70;44.60;;;;;;5068079;28;20201;-47
2021/05/20 09:36:07;;;;;;;0.73;0.73;;;23.80;45.00;;;;;;5068980;28;20201;-46
2021/05/20 09:38:33;;;;;;;2.30;0.70;;;23.70;45.10;;;;;;5070151;28;20228;-50
2021/05/20 09:41:00;;;;;;;1.10;1.00;;;23.80;45.40;;;;;;5068309;28;20665;-46
2021/05/20 09:43:27;;;;;;;0.60;0.60;;;23.80;45.70;;;;;;5066396;28;20688;-47
2021/05/20 09:45:53;;;;;;;0.70;0.70;;;23.80;46.10;;;;;;5066186;28;20205;-48
2021/05/20 09:48:20;;;;;;;1.23;0.82;;;23.80;46.30;;;;;;5068673;28;20231;-46
2021/05/20 09:50:46;;;;;;;0.70;0.70;;;23.80;46.60;;;;;;5068087;28;20271;-49
2021/05/20 09:53:12;;;;;;;0.70;0.70;;;23.80;47.40;;;;;;5067809;28;20201;-49
2021/05/20 09:55:38;;;;;;;1.40;0.80;;;23.80;47.80;;;;;;5069525;28;20213;-48
2021/05/20 09:58:04;;;;;;;0.80;0.80;;;23.80;48.70;;;;;;5057313;28;20292;-51
2021/05/20 10:00:30;;;;;;;1.50;0.80;;;23.80;49.60;;;;;;5069327;28;20228;-45
2021/05/20 10:02:56;;;;;;;1.05;0.90;;;23.90;51.20;;;;;;5066524;28;20676;-45
2021/05/20 10:05:22;;;;;;;2.67;0.90;;;23.80;51.30;;;;;;5066416;28;20201;-43
2021/05/20 10:07:48;;;;;;;0.60;0.60;;;23.80;51.80;;;;;;5068903;28;20324;-46
2021/05/20 10:10:15;;;;;;;1.65;0.80;;;23.80;48.10;;;;;;5069491;28;20201;-46
2021/05/20 10:12:43;;;;;;;0.95;0.70;;;23.80;46.50;;;;;;5067659;28;20205;-48
2021/05/20 10:15:09;;;;;;;0.70;0.70;;;23.80;48.20;;;;;;5067949;28;20240;-45
2021/05/20 10:17:35;;;;;;;0.70;0.70;;;23.80;50.20;;;;;;5057332;28;20236;-44
2021/05/20 10:20:01;;;;;;;0.60;0.60;;;23.80;51.00;;;;;;5068315;28;20213;-47
2021/05/20 10:22:27;;;;;;;0.65;0.63;;;23.80;48.80;;;;;;5068306;28;20225;-46
2021/05/20 10:24:53;;;;;;;1.10;1.00;;;23.90;48.40;;;;;;5071382;28;20577;-44
2021/05/20 10:27:19;;;;;;;0.70;0.70;;;23.90;49.10;;;;;;5069714;28;20221;-43
2021/05/20 10:29:45;;;;;;;0.70;0.70;;;23.90;49.40;;;;;;5067149;28;20298;-44
2021/05/20 10:32:11;;;;;;;0.70;0.70;;;23.90;50.00;;;;;;5070161;28;20224;-43
2021/05/20 10:34:37;;;;;;;0.70;0.70;;;23.80;50.20;;;;;;5069534;28;20715;-47
2021/05/20 10:37:04;;;;;;;0.70;0.70;;;23.90;50.10;;;;;;5069688;28;20304;-48
2021/05/20 10:39:30;;;;;;;0.95;0.80;;;23.90;50.30;;;;;;5071126;28;20577;-47
2021/05/20 10:41:56;;;;;;;0.70;0.70;;;23.90;51.10;;;;;;5070614;28;20232;-45
2021/05/20 10:44:23;;;;;;;1.75;0.70;;;23.80;50.40;;;;;;5069211;28;20201;-43
2021/05/20 10:46:49;;;;;;;0.77;0.60;;;23.80;50.40;;;;;;5067855;28;20274;-44
2021/05/20 10:49:21;;;;;;;1.52;0.73;;;23.80;49.90;;;;;;5067762;28;20650;-49
2021/05/20 10:51:47;;;;;;;0.82;0.70;;;23.90;51.50;;;;;;5069783;28;20202;-43
2021/05/20 10:54:15;;;;;;;1.15;0.70;;;23.90;51.20;;;;;;5069923;28;20242;-45
2021/05/20 10:56:41;;;;;;;0.68;0.65;;;23.90;51.10;;;;;;5071404;28;20274;-43
2021/05/20 10:59:07;;;;;;;0.63;0.60;;;23.90;51.50;;;;;;5070179;28;20616;-43
2021/05/20 11:01:34;;;;;;;0.70;0.70;;;23.90;50.80;;;;;;5068979;28;20287;-46
2021/05/20 11:04:02;;;;;;;0.85;0.85;;;23.90;50.30;;;;;;5069263;28;20201;-46
2021/05/20 11:06:28;;;;;;;1.13;0.80;;;23.90;50.40;;;;;;5070710;28;20225;-46
2021/05/20 11:08:54;;;;;;;0.70;0.70;;;23.90;50.30;;;;;;5068317;28;20220;-42
2021/05/20 11:11:20;;;;;;;0.98;0.68;;;23.90;50.00;;;;;;5068223;28;20212;-43
2021/05/20 11:13:46;;;;;;;1.10;0.73;;;23.90;49.50;;;;;;5068006;28;20205;-46
2021/05/20 11:16:12;;;;;;;0.65;0.65;;;23.90;50.20;;;;;;5071288;28;20224;-47
2021/05/20 11:18:38;;;;;;;0.70;0.70;;;23.90;50.00;;;;;;5070286;28;20208;-51
2021/05/20 11:21:04;;;;;;;0.70;0.70;;;23.90;49.60;;;;;;5070008;28;20229;-49
2021/05/20 11:23:30;;;;;;;0.60;0.60;;;23.90;49.40;;;;;;5070475;28;20270;-48
2021/05/20 11:25:56;;;;;;;0.70;0.70;;;23.90;49.70;;;;;;5066200;28;20294;-52
2021/05/20 11:28:22;;;;;;;1.58;0.82;;;23.80;49.10;;;;;;5067566;28;20213;-56
2021/05/20 11:30:48;;;;;;;0.60;0.60;;;23.80;50.00;;;;;;5068746;28;20224;-52
2021/05/20 11:33:14;;;;;;;1.40;0.70;;;23.80;50.00;;;;;;5069443;28;20197;-53
2021/05/20 11:35:53;;;;;;;1.55;0.77;;;23.80;50.10;;;;;;5070950;28;20225;-45
2021/05/20 11:38:21;;;;;;;0.95;0.70;;;23.80;51.00;;;;;;5068816;28;20446;-53
2021/05/20 11:40:47;;;;;;;0.70;0.70;;;23.80;50.40;;;;;;5068006;28;20229;-51
2021/05/20 11:43:13;;;;;;;0.70;0.70;;;23.80;50.50;;;;;;5068909;28;20293;-45
2021/05/20 11:45:39;;;;;;;0.70;0.60;;;23.80;51.50;;;;;;5068426;28;20232;-52
2021/05/20 11:48:05;;;;;;;2.50;0.82;;;23.80;51.50;;;;;;5070820;28;20222;-48
2021/05/20 11:50:33;;;;;;;2.35;0.70;;;23.80;50.80;;;;;;5068769;28;20205;-49
2021/05/20 11:52:59;;;;;;;1.15;0.88;;;23.80;51.50;;;;;;5069982;28;20284;-43
2021/05/20 11:55:25;;;;;;;0.82;0.70;;;23.80;51.40;;;;;;5070531;28;20220;-44
2021/05/20 11:57:51;;;;;;;1.05;0.80;;;23.80;51.50;;;;;;5070219;28;20244;-43
2021/05/20 12:00:17;;;;;;;1.25;0.90;;;23.80;51.90;;;;;;5068799;28;20365;-47
2021/05/20 12:02:43;;;;;;;1.20;0.90;;;23.80;52.10;;;;;;5069485;28;20314;-46
2021/05/20 12:05:09;;;;;;;0.90;0.90;;;23.80;51.90;;;;;;5068280;28;20209;-45
2021/05/20 12:07:37;;;;;;;0.80;0.80;;;23.80;51.60;;;;;;5068864;28;20225;-47
2021/05/20 12:10:03;;;;;;;1.00;0.95;;;23.80;51.30;;;;;;5064058;28;20230;-51
2021/05/20 12:12:29;;;;;;;0.98;0.90;;;23.80;51.00;;;;;;5065124;28;20920;-54
2021/05/20 12:14:55;;;;;;;1.58;1.00;;;23.80;50.50;;;;;;5066452;28;20664;-45
2021/05/20 12:17:21;;;;;;;2.28;1.00;;;23.80;50.40;;;;;;5065600;28;20601;-47
2021/05/20 12:19:47;;;;;;;1.23;0.90;;;23.80;51.10;;;;;;5062520;28;20672;-49
2021/05/20 12:22:13;;;;;;;2.10;1.13;;;23.80;50.60;;;;;;5066140;28;20228;-47
2021/05/20 12:24:39;;;;;;;1.27;0.90;;;23.80;50.80;;;;;;5068150;28;20197;-48
2021/05/20 12:27:06;;;;;;;1.75;1.10;;;23.80;51.30;;;;;;5068987;28;20240;-48
2021/05/20 12:29:32;;;;;;;1.27;0.90;;;23.80;51.50;;;;;;5064629;28;20231;-43
2021/05/20 12:31:58;;;;;;;1.00;0.90;;;23.80;52.00;;;;;;5062019;28;20197;-45
2021/05/20 12:34:24;;;;;;;1.10;1.08;;;23.80;51.40;;;;;;5067128;28;20208;-51
2021/05/20 12:36:50;;;;;;;1.00;0.90;;;23.90;52.10;;;;;;5068186;28;20260;-46
2021/05/20 12:39:16;;;;;;;0.93;0.93;;;23.90;51.10;;;;;;5067603;28;20208;-47
2021/05/20 12:41:42;;;;;;;0.90;0.90;;;23.80;51.10;;;;;;5070136;28;20274;-43
2021/05/20 12:44:08;;;;;;;0.82;0.82;;;23.80;51.40;;;;;;5065993;28;20217;-51